sensor_id;sensor_type;location;lat;lon;timestamp;P1;durP1;ratioP1;P2;durP2;ratioP2
5787;SDS011;2920;48.158;12.254;2023-02-01T00:01:20;3.70;;;2.22;;
5787;SDS011;2920;48.158;12.254;2023-02-01T00:03:46;4.03;;;2.35;;
5787;SDS011;2920;48.158;12.254;2023-02-01T00:06:11;5.72;;;2.25;;
5787;SDS011;2920;48.158;12.254;2023-02-01T00:08:36;4.03;;;2.33;;
5787;SDS011;2920;48.158;12.254;2023-02-01T00:11:06;5.70;;;2.70;;
5787;SDS011;2920;48.158;12.254;2023-02-01T00:13:32;3.53;;;2.22;;
5787;SDS011;2920;48.158;12.254;2023-02-01T00:16:06;4.90;;;2.15;;
5787;SDS011;2920;48.158;12.254;2023-02-01T00:18:31;6.05;;;2.00;;
5787;SDS011;2920;48.158;12.254;2023-02-01T00:20:57;4.18;;;2.00;;
5787;SDS011;2920;48.158;12.254;2023-02-01T00:23:22;2.65;;;1.73;;
5787;SDS011;2920;48.158;12.254;2023-02-01T00:25:47;6.95;;;2.40;;
5787;SDS011;2920;48.158;12.254;2023-02-01T00:28:13;4.07;;;2.10;;
5787;SDS011;2920;48.158;12.254;2023-02-01T00:30:38;2.72;;;1.90;;
5787;SDS011;2920;48.158;12.254;2023-02-01T00:33:04;2.33;;;1.60;;
5787;SDS011;2920;48.158;12.254;2023-02-01T00:35:29;2.65;;;1.83;;
5787;SDS011;2920;48.158;12.254;2023-02-01T00:37:54;7.22;;;2.10;;
5787;SDS011;2920;48.158;12.254;2023-02-01T00:40:20;2.90;;;1.65;;
5787;SDS011;2920;48.158;12.254;2023-02-01T00:42:45;3.10;;;1.88;;
5787;SDS011;2920;48.158;12.254;2023-02-01T00:45:10;2.80;;;1.67;;
5787;SDS011;2920;48.158;12.254;2023-02-01T00:47:36;2.30;;;1.75;;
5787;SDS011;2920;48.158;12.254;2023-02-01T00:50:01;3.28;;;1.58;;
5787;SDS011;2920;48.158;12.254;2023-02-01T00:52:26;3.03;;;1.83;;
5787;SDS011;2920;48.158;12.254;2023-02-01T00:54:52;1.92;;;1.60;;
5787;SDS011;2920;48.158;12.254;2023-02-01T00:57:17;3.88;;;2.00;;
5787;SDS011;2920;48.158;12.254;2023-02-01T00:59:42;1.98;;;1.30;;
5787;SDS011;2920;48.158;12.254;2023-02-01T01:02:08;3.08;;;1.48;;
5787;SDS011;2920;48.158;12.254;2023-02-01T01:04:33;3.95;;;1.52;;
5787;SDS011;2920;48.158;12.254;2023-02-01T01:06:58;3.60;;;1.45;;
5787;SDS011;2920;48.158;12.254;2023-02-01T01:09:24;5.07;;;1.90;;
5787;SDS011;2920;48.158;12.254;2023-02-01T01:11:49;2.75;;;1.45;;
5787;SDS011;2920;48.158;12.254;2023-02-01T01:14:16;4.07;;;1.67;;
5787;SDS011;2920;48.158;12.254;2023-02-01T01:16:41;2.60;;;1.70;;
5787;SDS011;2920;48.158;12.254;2023-02-01T01:19:06;3.03;;;1.73;;
5787;SDS011;2920;48.158;12.254;2023-02-01T01:21:32;3.58;;;1.65;;
5787;SDS011;2920;48.158;12.254;2023-02-01T01:23:57;3.35;;;2.00;;
5787;SDS011;2920;48.158;12.254;2023-02-01T01:26:24;4.47;;;1.75;;
5787;SDS011;2920;48.158;12.254;2023-02-01T01:28:50;2.45;;;1.65;;
5787;SDS011;2920;48.158;12.254;2023-02-01T01:31:16;2.13;;;1.50;;
5787;SDS011;2920;48.158;12.254;2023-02-01T01:33:43;3.15;;;1.90;;
5787;SDS011;2920;48.158;12.254;2023-02-01T01:36:09;2.88;;;1.70;;
5787;SDS011;2920;48.158;12.254;2023-02-01T01:38:36;3.55;;;1.67;;
5787;SDS011;2920;48.158;12.254;2023-02-01T01:41:02;3.47;;;2.10;;
5787;SDS011;2920;48.158;12.254;2023-02-01T01:43:44;3.10;;;1.60;;
5787;SDS011;2920;48.158;12.254;2023-02-01T01:46:10;2.53;;;1.55;;
5787;SDS011;2920;48.158;12.254;2023-02-01T01:48:40;6.50;;;2.38;;
5787;SDS011;2920;48.158;12.254;2023-02-01T01:51:07;3.13;;;1.92;;
5787;SDS011;2920;48.158;12.254;2023-02-01T01:53:42;4.35;;;1.83;;
5787;SDS011;2920;48.158;12.254;2023-02-01T01:56:10;3.63;;;2.05;;
5787;SDS011;2920;48.158;12.254;2023-02-01T01:58:36;3.20;;;1.92;;
5787;SDS011;2920;48.158;12.254;2023-02-01T02:01:02;3.85;;;1.90;;
5787;SDS011;2920;48.158;12.254;2023-02-01T02:03:32;6.03;;;2.63;;
5787;SDS011;2920;48.158;12.254;2023-02-01T02:06:05;3.10;;;2.30;;
5787;SDS011;2920;48.158;12.254;2023-02-01T02:08:55;2.83;;;1.67;;
5787;SDS011;2920;48.158;12.254;2023-02-01T02:11:20;3.45;;;2.15;;
5787;SDS011;2920;48.158;12.254;2023-02-01T02:13:46;4.95;;;2.42;;
5787;SDS011;2920;48.158;12.254;2023-02-01T02:22:04;3.13;;;2.05;;
5787;SDS011;2920;48.158;12.254;2023-02-01T02:27:31;3.70;;;2.25;;
5787;SDS011;2920;48.158;12.254;2023-02-01T02:41:43;3.58;;;2.50;;
5787;SDS011;2920;48.158;12.254;2023-02-01T02:44:33;6.28;;;2.50;;
5787;SDS011;2920;48.158;12.254;2023-02-01T02:47:24;4.78;;;2.55;;
5787;SDS011;2920;48.158;12.254;2023-02-01T02:52:56;4.35;;;2.28;;
5787;SDS011;2920;48.158;12.254;2023-02-01T02:55:46;3.97;;;2.90;;
5787;SDS011;2920;48.158;12.254;2023-02-01T02:58:11;4.80;;;2.45;;
5787;SDS011;2920;48.158;12.254;2023-02-01T03:00:55;6.10;;;2.90;;
5787;SDS011;2920;48.158;12.254;2023-02-01T03:03:40;3.97;;;2.47;;
5787;SDS011;2920;48.158;12.254;2023-02-01T03:06:24;7.13;;;2.90;;
5787;SDS011;2920;48.158;12.254;2023-02-01T03:08:50;3.95;;;2.22;;
5787;SDS011;2920;48.158;12.254;2023-02-01T03:11:19;7.55;;;3.13;;
5787;SDS011;2920;48.158;12.254;2023-02-01T03:13:46;4.40;;;2.88;;
5787;SDS011;2920;48.158;12.254;2023-02-01T03:19:07;5.88;;;3.50;;
5787;SDS011;2920;48.158;12.254;2023-02-01T03:21:59;6.03;;;3.30;;
5787;SDS011;2920;48.158;12.254;2023-02-01T03:24:31;6.78;;;3.35;;
5787;SDS011;2920;48.158;12.254;2023-02-01T03:27:09;5.72;;;3.22;;
5787;SDS011;2920;48.158;12.254;2023-02-01T03:29:44;8.07;;;3.43;;
5787;SDS011;2920;48.158;12.254;2023-02-01T03:32:13;5.18;;;3.33;;
5787;SDS011;2920;48.158;12.254;2023-02-01T03:34:38;5.60;;;3.42;;
5787;SDS011;2920;48.158;12.254;2023-02-01T03:37:05;6.57;;;3.67;;
5787;SDS011;2920;48.158;12.254;2023-02-01T03:39:36;8.55;;;3.70;;
5787;SDS011;2920;48.158;12.254;2023-02-01T03:42:08;5.85;;;3.20;;
5787;SDS011;2920;48.158;12.254;2023-02-01T03:44:40;4.70;;;2.97;;
5787;SDS011;2920;48.158;12.254;2023-02-01T03:47:12;4.93;;;3.30;;
5787;SDS011;2920;48.158;12.254;2023-02-01T03:49:43;4.13;;;2.78;;
5787;SDS011;2920;48.158;12.254;2023-02-01T03:52:12;6.70;;;3.20;;
5787;SDS011;2920;48.158;12.254;2023-02-01T03:54:40;4.13;;;2.45;;
5787;SDS011;2920;48.158;12.254;2023-02-01T03:57:07;3.90;;;2.50;;
5787;SDS011;2920;48.158;12.254;2023-02-01T03:59:38;5.60;;;3.15;;
5787;SDS011;2920;48.158;12.254;2023-02-01T04:02:04;5.95;;;2.55;;
5787;SDS011;2920;48.158;12.254;2023-02-01T04:04:29;6.90;;;2.80;;
5787;SDS011;2920;48.158;12.254;2023-02-01T04:06:55;4.85;;;2.50;;
5787;SDS011;2920;48.158;12.254;2023-02-01T04:09:20;4.05;;;2.53;;
5787;SDS011;2920;48.158;12.254;2023-02-01T04:11:46;3.38;;;2.40;;
5787;SDS011;2920;48.158;12.254;2023-02-01T04:14:11;4.30;;;2.85;;
5787;SDS011;2920;48.158;12.254;2023-02-01T04:16:36;5.53;;;3.50;;
5787;SDS011;2920;48.158;12.254;2023-02-01T04:19:02;5.03;;;3.40;;
5787;SDS011;2920;48.158;12.254;2023-02-01T04:21:27;4.65;;;2.70;;
5787;SDS011;2920;48.158;12.254;2023-02-01T04:23:53;8.70;;;4.38;;
5787;SDS011;2920;48.158;12.254;2023-02-01T04:26:19;7.72;;;4.53;;
5787;SDS011;2920;48.158;12.254;2023-02-01T04:28:45;13.68;;;5.75;;
5787;SDS011;2920;48.158;12.254;2023-02-01T04:31:13;17.20;;;6.95;;
5787;SDS011;2920;48.158;12.254;2023-02-01T04:33:39;5.82;;;2.85;;
5787;SDS011;2920;48.158;12.254;2023-02-01T04:36:04;7.03;;;3.78;;
5787;SDS011;2920;48.158;12.254;2023-02-01T04:38:29;3.45;;;2.45;;
5787;SDS011;2920;48.158;12.254;2023-02-01T04:40:57;4.55;;;2.80;;
5787;SDS011;2920;48.158;12.254;2023-02-01T04:43:22;3.85;;;2.58;;
5787;SDS011;2920;48.158;12.254;2023-02-01T04:45:48;6.65;;;2.72;;
5787;SDS011;2920;48.158;12.254;2023-02-01T04:48:14;5.10;;;2.80;;
5787;SDS011;2920;48.158;12.254;2023-02-01T04:50:40;4.15;;;2.30;;
5787;SDS011;2920;48.158;12.254;2023-02-01T04:53:05;4.80;;;2.70;;
5787;SDS011;2920;48.158;12.254;2023-02-01T04:55:31;4.50;;;2.35;;
5787;SDS011;2920;48.158;12.254;2023-02-01T04:57:56;5.45;;;3.03;;
5787;SDS011;2920;48.158;12.254;2023-02-01T05:00:21;7.63;;;4.05;;
5787;SDS011;2920;48.158;12.254;2023-02-01T05:02:47;4.35;;;2.80;;
5787;SDS011;2920;48.158;12.254;2023-02-01T05:05:12;3.67;;;2.22;;
5787;SDS011;2920;48.158;12.254;2023-02-01T05:07:37;5.18;;;3.13;;
5787;SDS011;2920;48.158;12.254;2023-02-01T05:10:03;3.90;;;2.80;;
5787;SDS011;2920;48.158;12.254;2023-02-01T05:12:28;6.85;;;2.30;;
5787;SDS011;2920;48.158;12.254;2023-02-01T05:15:12;4.32;;;2.40;;
5787;SDS011;2920;48.158;12.254;2023-02-01T05:17:38;4.55;;;2.60;;
5787;SDS011;2920;48.158;12.254;2023-02-01T05:20:05;4.32;;;2.60;;
5787;SDS011;2920;48.158;12.254;2023-02-01T05:22:31;3.10;;;1.77;;
5787;SDS011;2920;48.158;12.254;2023-02-01T05:24:56;4.20;;;2.72;;
5787;SDS011;2920;48.158;12.254;2023-02-01T05:27:22;3.85;;;2.60;;
5787;SDS011;2920;48.158;12.254;2023-02-01T05:29:47;4.20;;;2.40;;
5787;SDS011;2920;48.158;12.254;2023-02-01T05:32:12;3.88;;;2.20;;
5787;SDS011;2920;48.158;12.254;2023-02-01T05:34:38;5.05;;;2.33;;
5787;SDS011;2920;48.158;12.254;2023-02-01T05:37:03;4.70;;;2.45;;
5787;SDS011;2920;48.158;12.254;2023-02-01T05:39:28;3.55;;;2.13;;
5787;SDS011;2920;48.158;12.254;2023-02-01T05:41:54;5.20;;;2.20;;
5787;SDS011;2920;48.158;12.254;2023-02-01T05:44:19;5.57;;;2.90;;
5787;SDS011;2920;48.158;12.254;2023-02-01T05:46:44;4.70;;;2.40;;
5787;SDS011;2920;48.158;12.254;2023-02-01T05:49:09;4.90;;;2.55;;
5787;SDS011;2920;48.158;12.254;2023-02-01T05:51:35;4.32;;;2.30;;
5787;SDS011;2920;48.158;12.254;2023-02-01T05:54:00;3.97;;;2.30;;
5787;SDS011;2920;48.158;12.254;2023-02-01T05:56:25;3.50;;;2.30;;
5787;SDS011;2920;48.158;12.254;2023-02-01T05:58:51;3.90;;;2.45;;
5787;SDS011;2920;48.158;12.254;2023-02-01T06:01:16;5.30;;;2.63;;
5787;SDS011;2920;48.158;12.254;2023-02-01T06:03:41;5.90;;;3.13;;
5787;SDS011;2920;48.158;12.254;2023-02-01T06:06:07;4.63;;;2.67;;
5787;SDS011;2920;48.158;12.254;2023-02-01T06:08:32;4.05;;;2.28;;
5787;SDS011;2920;48.158;12.254;2023-02-01T06:10:58;4.50;;;2.20;;
5787;SDS011;2920;48.158;12.254;2023-02-01T06:13:24;4.95;;;3.05;;
5787;SDS011;2920;48.158;12.254;2023-02-01T06:15:50;6.65;;;2.90;;
5787;SDS011;2920;48.158;12.254;2023-02-01T06:18:16;3.60;;;2.40;;
5787;SDS011;2920;48.158;12.254;2023-02-01T06:20:41;4.78;;;2.90;;
5787;SDS011;2920;48.158;12.254;2023-02-01T06:23:07;6.13;;;3.20;;
5787;SDS011;2920;48.158;12.254;2023-02-01T06:25:32;6.13;;;3.00;;
5787;SDS011;2920;48.158;12.254;2023-02-01T06:28:00;4.95;;;2.50;;
5787;SDS011;2920;48.158;12.254;2023-02-01T06:30:25;4.35;;;2.63;;
5787;SDS011;2920;48.158;12.254;2023-02-01T06:32:51;4.47;;;2.83;;
5787;SDS011;2920;48.158;12.254;2023-02-01T06:35:18;4.32;;;2.85;;
5787;SDS011;2920;48.158;12.254;2023-02-01T06:37:44;6.80;;;2.97;;
5787;SDS011;2920;48.158;12.254;2023-02-01T06:40:10;5.45;;;2.78;;
5787;SDS011;2920;48.158;12.254;2023-02-01T06:42:36;4.22;;;2.85;;
5787;SDS011;2920;48.158;12.254;2023-02-01T06:45:01;7.03;;;3.00;;
5787;SDS011;2920;48.158;12.254;2023-02-01T06:47:26;3.72;;;2.40;;
5787;SDS011;2920;48.158;12.254;2023-02-01T06:49:51;4.47;;;2.75;;
5787;SDS011;2920;48.158;12.254;2023-02-01T06:52:17;4.50;;;2.67;;
5787;SDS011;2920;48.158;12.254;2023-02-01T06:54:42;5.32;;;3.03;;
5787;SDS011;2920;48.158;12.254;2023-02-01T06:57:07;3.20;;;2.13;;
5787;SDS011;2920;48.158;12.254;2023-02-01T06:59:33;7.97;;;2.70;;
5787;SDS011;2920;48.158;12.254;2023-02-01T07:01:58;5.03;;;2.70;;
5787;SDS011;2920;48.158;12.254;2023-02-01T07:04:23;6.60;;;2.90;;
5787;SDS011;2920;48.158;12.254;2023-02-01T07:06:49;4.68;;;2.33;;
5787;SDS011;2920;48.158;12.254;2023-02-01T07:09:14;3.63;;;2.42;;
5787;SDS011;2920;48.158;12.254;2023-02-01T07:11:39;4.18;;;2.40;;
5787;SDS011;2920;48.158;12.254;2023-02-01T07:14:08;3.58;;;2.20;;
5787;SDS011;2920;48.158;12.254;2023-02-01T07:16:33;4.78;;;2.55;;
5787;SDS011;2920;48.158;12.254;2023-02-01T07:18:59;4.10;;;2.33;;
5787;SDS011;2920;48.158;12.254;2023-02-01T07:21:24;6.70;;;2.72;;
5787;SDS011;2920;48.158;12.254;2023-02-01T07:23:50;5.40;;;2.40;;
5787;SDS011;2920;48.158;12.254;2023-02-01T07:26:15;6.60;;;2.92;;
5787;SDS011;2920;48.158;12.254;2023-02-01T07:28:41;3.72;;;2.42;;
5787;SDS011;2920;48.158;12.254;2023-02-01T07:31:11;3.92;;;2.35;;
5787;SDS011;2920;48.158;12.254;2023-02-01T07:33:43;3.35;;;2.22;;
5787;SDS011;2920;48.158;12.254;2023-02-01T07:36:11;4.30;;;2.40;;
5787;SDS011;2920;48.158;12.254;2023-02-01T07:38:38;7.03;;;3.38;;
5787;SDS011;2920;48.158;12.254;2023-02-01T07:41:04;5.65;;;2.65;;
5787;SDS011;2920;48.158;12.254;2023-02-01T07:43:30;4.70;;;2.42;;
5787;SDS011;2920;48.158;12.254;2023-02-01T07:45:56;3.85;;;2.45;;
5787;SDS011;2920;48.158;12.254;2023-02-01T07:48:22;3.67;;;2.17;;
5787;SDS011;2920;48.158;12.254;2023-02-01T07:50:48;5.63;;;3.13;;
5787;SDS011;2920;48.158;12.254;2023-02-01T07:53:29;6.53;;;3.25;;
5787;SDS011;2920;48.158;12.254;2023-02-01T07:55:55;6.53;;;2.70;;
5787;SDS011;2920;48.158;12.254;2023-02-01T07:58:23;4.60;;;2.88;;
5787;SDS011;2920;48.158;12.254;2023-02-01T08:00:49;6.13;;;2.35;;
5787;SDS011;2920;48.158;12.254;2023-02-01T08:03:34;3.40;;;1.95;;
5787;SDS011;2920;48.158;12.254;2023-02-01T08:05:59;4.18;;;2.15;;
5787;SDS011;2920;48.158;12.254;2023-02-01T08:08:24;4.25;;;2.47;;
5787;SDS011;2920;48.158;12.254;2023-02-01T08:10:50;4.97;;;2.08;;
5787;SDS011;2920;48.158;12.254;2023-02-01T08:13:15;2.97;;;2.25;;
5787;SDS011;2920;48.158;12.254;2023-02-01T08:15:41;5.40;;;2.22;;
5787;SDS011;2920;48.158;12.254;2023-02-01T08:18:06;3.30;;;1.90;;
5787;SDS011;2920;48.158;12.254;2023-02-01T08:20:31;3.00;;;2.00;;
5787;SDS011;2920;48.158;12.254;2023-02-01T08:22:59;3.17;;;1.95;;
5787;SDS011;2920;48.158;12.254;2023-02-01T08:25:24;3.00;;;1.77;;
5787;SDS011;2920;48.158;12.254;2023-02-01T08:27:50;2.60;;;1.50;;
5787;SDS011;2920;48.158;12.254;2023-02-01T08:30:15;2.38;;;1.50;;
5787;SDS011;2920;48.158;12.254;2023-02-01T08:32:41;3.58;;;1.90;;
5787;SDS011;2920;48.158;12.254;2023-02-01T08:35:07;3.72;;;2.03;;
5787;SDS011;2920;48.158;12.254;2023-02-01T08:37:33;4.45;;;2.17;;
5787;SDS011;2920;48.158;12.254;2023-02-01T08:39:58;3.83;;;1.95;;
5787;SDS011;2920;48.158;12.254;2023-02-01T08:42:23;5.30;;;2.00;;
5787;SDS011;2920;48.158;12.254;2023-02-01T08:45:07;3.58;;;1.85;;
5787;SDS011;2920;48.158;12.254;2023-02-01T08:47:33;4.10;;;2.42;;
5787;SDS011;2920;48.158;12.254;2023-02-01T08:49:59;3.53;;;2.22;;
5787;SDS011;2920;48.158;12.254;2023-02-01T08:52:25;3.72;;;1.90;;
5787;SDS011;2920;48.158;12.254;2023-02-01T08:54:50;3.30;;;2.08;;
5787;SDS011;2920;48.158;12.254;2023-02-01T08:57:16;2.80;;;1.67;;
5787;SDS011;2920;48.158;12.254;2023-02-01T08:59:42;2.90;;;1.52;;
5787;SDS011;2920;48.158;12.254;2023-02-01T09:02:11;3.22;;;2.05;;
5787;SDS011;2920;48.158;12.254;2023-02-01T09:04:37;7.25;;;2.17;;
5787;SDS011;2920;48.158;12.254;2023-02-01T09:07:02;1.98;;;1.60;;
5787;SDS011;2920;48.158;12.254;2023-02-01T09:09:27;2.78;;;1.67;;
5787;SDS011;2920;48.158;12.254;2023-02-01T09:11:53;4.20;;;1.98;;
5787;SDS011;2920;48.158;12.254;2023-02-01T09:14:18;2.75;;;1.60;;
5787;SDS011;2920;48.158;12.254;2023-02-01T09:16:43;1.95;;;1.50;;
5787;SDS011;2920;48.158;12.254;2023-02-01T09:19:09;2.15;;;1.70;;
5787;SDS011;2920;48.158;12.254;2023-02-01T09:21:34;3.53;;;1.75;;
5787;SDS011;2920;48.158;12.254;2023-02-01T09:23:59;2.83;;;1.73;;
5787;SDS011;2920;48.158;12.254;2023-02-01T09:26:25;2.75;;;1.52;;
5787;SDS011;2920;48.158;12.254;2023-02-01T09:28:50;2.90;;;1.95;;
5787;SDS011;2920;48.158;12.254;2023-02-01T09:31:16;2.47;;;1.42;;
5787;SDS011;2920;48.158;12.254;2023-02-01T09:33:41;3.05;;;1.60;;
5787;SDS011;2920;48.158;12.254;2023-02-01T09:36:07;2.75;;;1.60;;
5787;SDS011;2920;48.158;12.254;2023-02-01T09:38:32;2.83;;;1.55;;
5787;SDS011;2920;48.158;12.254;2023-02-01T09:40:57;3.78;;;2.08;;
5787;SDS011;2920;48.158;12.254;2023-02-01T09:46:31;2.20;;;1.38;;
5787;SDS011;2920;48.158;12.254;2023-02-01T09:49:00;3.20;;;1.75;;
5787;SDS011;2920;48.158;12.254;2023-02-01T09:51:30;2.75;;;1.58;;
5787;SDS011;2920;48.158;12.254;2023-02-01T10:01:59;2.75;;;1.90;;
5787;SDS011;2920;48.158;12.254;2023-02-01T10:04:24;2.85;;;1.50;;
5787;SDS011;2920;48.158;12.254;2023-02-01T10:09:35;2.90;;;1.40;;
5787;SDS011;2920;48.158;12.254;2023-02-01T10:14:59;2.97;;;1.90;;
5787;SDS011;2920;48.158;12.254;2023-02-01T10:17:40;2.25;;;1.42;;
5787;SDS011;2920;48.158;12.254;2023-02-01T10:23:05;4.82;;;2.05;;
5787;SDS011;2920;48.158;12.254;2023-02-01T10:28:18;2.45;;;1.67;;
5787;SDS011;2920;48.158;12.254;2023-02-01T10:30:46;3.50;;;1.50;;
5787;SDS011;2920;48.158;12.254;2023-02-01T10:33:18;2.45;;;1.58;;
5787;SDS011;2920;48.158;12.254;2023-02-01T10:35:47;2.95;;;1.55;;
5787;SDS011;2920;48.158;12.254;2023-02-01T10:38:30;2.22;;;1.17;;
5787;SDS011;2920;48.158;12.254;2023-02-01T10:41:00;2.08;;;1.63;;
5787;SDS011;2920;48.158;12.254;2023-02-01T10:43:28;2.88;;;1.80;;
5787;SDS011;2920;48.158;12.254;2023-02-01T10:45:53;3.50;;;1.42;;
5787;SDS011;2920;48.158;12.254;2023-02-01T10:48:19;3.83;;;1.52;;
5787;SDS011;2920;48.158;12.254;2023-02-01T10:53:31;5.13;;;2.05;;
5787;SDS011;2920;48.158;12.254;2023-02-01T10:56:08;3.67;;;1.50;;
5787;SDS011;2920;48.158;12.254;2023-02-01T10:58:35;4.65;;;1.80;;
5787;SDS011;2920;48.158;12.254;2023-02-01T11:01:03;3.38;;;1.40;;
5787;SDS011;2920;48.158;12.254;2023-02-01T11:03:31;3.92;;;1.67;;
5787;SDS011;2920;48.158;12.254;2023-02-01T11:06:17;3.90;;;1.83;;
5787;SDS011;2920;48.158;12.254;2023-02-01T11:08:45;2.50;;;2.03;;
5787;SDS011;2920;48.158;12.254;2023-02-01T11:11:21;3.35;;;1.83;;
5787;SDS011;2920;48.158;12.254;2023-02-01T11:13:54;2.63;;;2.05;;
5787;SDS011;2920;48.158;12.254;2023-02-01T11:16:33;3.65;;;2.05;;
5787;SDS011;2920;48.158;12.254;2023-02-01T11:19:02;5.63;;;1.95;;
5787;SDS011;2920;48.158;12.254;2023-02-01T11:21:28;7.38;;;2.08;;
5787;SDS011;2920;48.158;12.254;2023-02-01T11:23:53;7.85;;;1.83;;
5787;SDS011;2920;48.158;12.254;2023-02-01T11:26:23;2.53;;;1.67;;
5787;SDS011;2920;48.158;12.254;2023-02-01T11:28:51;2.90;;;1.92;;
5787;SDS011;2920;48.158;12.254;2023-02-01T11:31:18;3.33;;;1.75;;
5787;SDS011;2920;48.158;12.254;2023-02-01T11:33:47;4.38;;;1.75;;
5787;SDS011;2920;48.158;12.254;2023-02-01T11:36:17;4.20;;;1.83;;
5787;SDS011;2920;48.158;12.254;2023-02-01T11:38:46;3.55;;;2.20;;
5787;SDS011;2920;48.158;12.254;2023-02-01T11:41:21;3.70;;;1.90;;
5787;SDS011;2920;48.158;12.254;2023-02-01T11:43:52;2.42;;;1.55;;
5787;SDS011;2920;48.158;12.254;2023-02-01T11:46:23;3.80;;;2.08;;
5787;SDS011;2920;48.158;12.254;2023-02-01T11:48:53;4.60;;;2.00;;
5787;SDS011;2920;48.158;12.254;2023-02-01T11:54:11;5.25;;;2.03;;
5787;SDS011;2920;48.158;12.254;2023-02-01T11:57:26;6.03;;;2.10;;
5787;SDS011;2920;48.158;12.254;2023-02-01T12:24:24;5.07;;;2.00;;
5787;SDS011;2920;48.158;12.254;2023-02-01T12:27:36;3.92;;;2.30;;
5787;SDS011;2920;48.158;12.254;2023-02-01T12:30:30;3.28;;;2.42;;
5787;SDS011;2920;48.158;12.254;2023-02-01T12:36:23;3.90;;;1.92;;
5787;SDS011;2920;48.158;12.254;2023-02-01T12:47:01;5.75;;;2.25;;
5787;SDS011;2920;48.158;12.254;2023-02-01T12:52:04;3.38;;;2.22;;
5787;SDS011;2920;48.158;12.254;2023-02-01T12:54:37;5.68;;;2.33;;
5787;SDS011;2920;48.158;12.254;2023-02-01T12:57:11;3.67;;;2.00;;
5787;SDS011;2920;48.158;12.254;2023-02-01T12:59:42;5.43;;;2.25;;
5787;SDS011;2920;48.158;12.254;2023-02-01T13:04:46;3.92;;;2.30;;
5787;SDS011;2920;48.158;12.254;2023-02-01T13:07:18;6.57;;;2.50;;
5787;SDS011;2920;48.158;12.254;2023-02-01T13:09:53;5.87;;;2.43;;
5787;SDS011;2920;48.158;12.254;2023-02-01T13:12:44;6.07;;;2.08;;
5787;SDS011;2920;48.158;12.254;2023-02-01T13:17:51;3.30;;;2.17;;
5787;SDS011;2920;48.158;12.254;2023-02-01T13:23:04;9.07;;;2.42;;
5787;SDS011;2920;48.158;12.254;2023-02-01T13:25:49;4.88;;;2.00;;
5787;SDS011;2920;48.158;12.254;2023-02-01T13:29:01;6.57;;;2.30;;
5787;SDS011;2920;48.158;12.254;2023-02-01T13:33:59;3.25;;;2.10;;
5787;SDS011;2920;48.158;12.254;2023-02-01T13:37:05;3.53;;;2.53;;
5787;SDS011;2920;48.158;12.254;2023-02-01T13:42:27;3.85;;;1.95;;
5787;SDS011;2920;48.158;12.254;2023-02-01T13:45:02;5.07;;;2.00;;
5787;SDS011;2920;48.158;12.254;2023-02-01T13:47:33;3.72;;;1.95;;
5787;SDS011;2920;48.158;12.254;2023-02-01T13:50:19;3.83;;;1.88;;
5787;SDS011;2920;48.158;12.254;2023-02-01T13:52:55;8.65;;;2.25;;
5787;SDS011;2920;48.158;12.254;2023-02-01T13:57:48;4.90;;;2.00;;
5787;SDS011;2920;48.158;12.254;2023-02-01T14:00:25;4.97;;;2.22;;
5787;SDS011;2920;48.158;12.254;2023-02-01T14:21:13;4.50;;;1.98;;
5787;SDS011;2920;48.158;12.254;2023-02-01T14:23:44;2.83;;;1.98;;
5787;SDS011;2920;48.158;12.254;2023-02-01T14:26:12;2.58;;;1.80;;
5787;SDS011;2920;48.158;12.254;2023-02-01T14:28:44;4.57;;;2.00;;
5787;SDS011;2920;48.158;12.254;2023-02-01T14:33:55;3.38;;;2.00;;
5787;SDS011;2920;48.158;12.254;2023-02-01T14:36:22;6.30;;;2.05;;
5787;SDS011;2920;48.158;12.254;2023-02-01T14:38:49;4.30;;;1.95;;
5787;SDS011;2920;48.158;12.254;2023-02-01T14:41:25;4.05;;;2.08;;
5787;SDS011;2920;48.158;12.254;2023-02-01T14:49:52;5.50;;;2.20;;
5787;SDS011;2920;48.158;12.254;2023-02-01T14:52:20;3.75;;;1.92;;
5787;SDS011;2920;48.158;12.254;2023-02-01T14:54:49;4.00;;;1.98;;
5787;SDS011;2920;48.158;12.254;2023-02-01T14:57:18;2.78;;;2.20;;
5787;SDS011;2920;48.158;12.254;2023-02-01T14:59:45;3.00;;;2.13;;
5787;SDS011;2920;48.158;12.254;2023-02-01T15:02:21;5.63;;;2.20;;
5787;SDS011;2920;48.158;12.254;2023-02-01T15:04:53;5.18;;;2.67;;
5787;SDS011;2920;48.158;12.254;2023-02-01T15:07:20;7.93;;;2.22;;
5787;SDS011;2920;48.158;12.254;2023-02-01T15:09:46;4.50;;;2.30;;
5787;SDS011;2920;48.158;12.254;2023-02-01T15:12:15;4.45;;;2.40;;
5787;SDS011;2920;48.158;12.254;2023-02-01T15:17:30;4.18;;;2.08;;
5787;SDS011;2920;48.158;12.254;2023-02-01T15:22:41;7.38;;;2.00;;
5787;SDS011;2920;48.158;12.254;2023-02-01T15:25:20;5.40;;;2.67;;
5787;SDS011;2920;48.158;12.254;2023-02-01T15:27:47;12.75;;;2.00;;
5787;SDS011;2920;48.158;12.254;2023-02-01T15:30:16;6.40;;;2.05;;
5787;SDS011;2920;48.158;12.254;2023-02-01T15:32:47;5.22;;;1.88;;
5787;SDS011;2920;48.158;12.254;2023-02-01T15:35:32;5.35;;;2.00;;
5787;SDS011;2920;48.158;12.254;2023-02-01T15:38:18;3.05;;;1.60;;
5787;SDS011;2920;48.158;12.254;2023-02-01T15:43:21;2.78;;;1.70;;
5787;SDS011;2920;48.158;12.254;2023-02-01T15:45:47;5.45;;;2.00;;
5787;SDS011;2920;48.158;12.254;2023-02-01T15:48:15;5.68;;;1.70;;
5787;SDS011;2920;48.158;12.254;2023-02-01T15:50:44;3.85;;;1.90;;
5787;SDS011;2920;48.158;12.254;2023-02-01T15:53:12;4.90;;;1.45;;
5787;SDS011;2920;48.158;12.254;2023-02-01T15:55:40;4.28;;;2.45;;
5787;SDS011;2920;48.158;12.254;2023-02-01T15:58:07;6.32;;;2.00;;
5787;SDS011;2920;48.158;12.254;2023-02-01T16:00:40;3.78;;;1.75;;
5787;SDS011;2920;48.158;12.254;2023-02-01T16:03:21;5.75;;;1.70;;
5787;SDS011;2920;48.158;12.254;2023-02-01T16:05:54;3.90;;;1.90;;
5787;SDS011;2920;48.158;12.254;2023-02-01T16:08:25;6.38;;;1.92;;
5787;SDS011;2920;48.158;12.254;2023-02-01T16:10:53;4.15;;;2.25;;
5787;SDS011;2920;48.158;12.254;2023-02-01T16:13:24;5.60;;;1.65;;
5787;SDS011;2920;48.158;12.254;2023-02-01T16:15:50;5.32;;;2.13;;
5787;SDS011;2920;48.158;12.254;2023-02-01T16:18:15;4.78;;;2.10;;
5787;SDS011;2920;48.158;12.254;2023-02-01T16:20:41;3.13;;;1.70;;
5787;SDS011;2920;48.158;12.254;2023-02-01T16:23:08;5.50;;;2.20;;
5787;SDS011;2920;48.158;12.254;2023-02-01T16:25:35;4.75;;;1.80;;
5787;SDS011;2920;48.158;12.254;2023-02-01T16:28:01;6.40;;;2.25;;
5787;SDS011;2920;48.158;12.254;2023-02-01T16:30:27;5.10;;;1.75;;
5787;SDS011;2920;48.158;12.254;2023-02-01T16:32:52;5.88;;;1.80;;
5787;SDS011;2920;48.158;12.254;2023-02-01T16:35:26;5.47;;;2.00;;
5787;SDS011;2920;48.158;12.254;2023-02-01T16:37:56;8.82;;;2.28;;
5787;SDS011;2920;48.158;12.254;2023-02-01T16:40:21;4.70;;;1.67;;
5787;SDS011;2920;48.158;12.254;2023-02-01T16:42:48;6.82;;;2.13;;
5787;SDS011;2920;48.158;12.254;2023-02-01T16:45:15;3.50;;;1.60;;
5787;SDS011;2920;48.158;12.254;2023-02-01T16:47:41;10.80;;;1.70;;
5787;SDS011;2920;48.158;12.254;2023-02-01T16:50:14;5.15;;;1.70;;
5787;SDS011;2920;48.158;12.254;2023-02-01T16:52:41;5.30;;;1.88;;
5787;SDS011;2920;48.158;12.254;2023-02-01T16:55:12;5.18;;;1.92;;
5787;SDS011;2920;48.158;12.254;2023-02-01T16:57:38;2.65;;;1.50;;
5787;SDS011;2920;48.158;12.254;2023-02-01T17:00:04;7.47;;;3.63;;
5787;SDS011;2920;48.158;12.254;2023-02-01T17:02:30;4.80;;;2.25;;
5787;SDS011;2920;48.158;12.254;2023-02-01T17:04:55;8.73;;;1.95;;
5787;SDS011;2920;48.158;12.254;2023-02-01T17:07:21;4.57;;;1.88;;
5787;SDS011;2920;48.158;12.254;2023-02-01T17:09:46;3.85;;;1.55;;
5787;SDS011;2920;48.158;12.254;2023-02-01T17:12:22;5.55;;;1.70;;
5787;SDS011;2920;48.158;12.254;2023-02-01T17:17:17;6.00;;;1.80;;
5787;SDS011;2920;48.158;12.254;2023-02-01T17:19:44;4.53;;;1.67;;
5787;SDS011;2920;48.158;12.254;2023-02-01T17:22:11;4.70;;;1.88;;
5787;SDS011;2920;48.158;12.254;2023-02-01T17:24:38;2.33;;;1.30;;
5787;SDS011;2920;48.158;12.254;2023-02-01T17:27:03;3.70;;;1.35;;
5787;SDS011;2920;48.158;12.254;2023-02-01T17:29:29;3.47;;;2.10;;
5787;SDS011;2920;48.158;12.254;2023-02-01T17:31:54;9.25;;;1.70;;
5787;SDS011;2920;48.158;12.254;2023-02-01T17:34:20;4.13;;;1.77;;
5787;SDS011;2920;48.158;12.254;2023-02-01T17:36:47;7.45;;;1.70;;